createdAt,value
2019-01-05T00:02:38.295Z,7.23
2019-01-05T00:05:28.794Z,7.13
2019-01-05T00:08:16.738Z,7.50
2019-01-05T00:11:11.865Z,7.60
2019-01-05T00:14:13.106Z,7.40
2019-01-05T00:16:55.155Z,6.80
2019-01-05T00:19:57.001Z,7.80
2019-01-05T00:22:52.921Z,6.53
2019-01-05T00:25:42.360Z,7.33
2019-01-05T00:28:43.034Z,8.13
2019-01-05T00:31:31.008Z,7.17
2019-01-05T00:34:32.578Z,6.83
2019-01-05T00:37:29.511Z,7.23
2019-01-05T00:40:20.540Z,6.50
2019-01-05T00:43:08.898Z,6.60
2019-01-05T00:46:17.824Z,7.80
2019-01-05T00:49:14.963Z,7.13
2019-01-05T00:51:57.567Z,7.07
2019-01-05T00:54:50.604Z,7.47
2019-01-05T00:57:47.304Z,6.87
2019-01-05T01:00:35.037Z,7.00
2019-01-05T01:03:30.462Z,6.90
2019-01-05T01:06:38.022Z,6.70
2019-01-05T01:09:25.866Z,6.67
2019-01-05T01:12:18.298Z,7.10
2019-01-05T01:15:06.374Z,6.77
2019-01-05T01:18:10.937Z,7.50
2019-01-05T01:21:00.506Z,7.60
2019-01-05T01:23:48.569Z,7.07
2019-01-05T01:26:36.884Z,7.30
2019-01-05T01:29:41.781Z,7.77
2019-01-05T01:32:31.111Z,6.83
2019-01-05T01:35:20.557Z,6.57
2019-01-05T01:38:48.677Z,7.33
2019-01-05T01:41:50.259Z,7.40
2019-01-05T01:44:40.285Z,7.00
2019-01-05T01:47:45.988Z,7.13
2019-01-05T01:50:36.099Z,7.37
2019-01-05T01:53:43.293Z,7.83
2019-01-05T01:56:48.918Z,6.63
2019-01-05T02:00:06.744Z,7.17
2019-01-05T02:02:53.924Z,7.33
2019-01-05T02:05:45.060Z,7.60
2019-01-05T02:08:40.941Z,7.13
2019-01-05T02:11:30.776Z,7.07
2019-01-05T02:14:29.887Z,8.00
2019-01-05T02:17:33.854Z,7.57
2019-01-05T02:20:57.947Z,7.40
2019-01-05T02:24:35.216Z,7.67
2019-01-05T02:28:19.814Z,7.77
2019-01-05T02:31:51.608Z,8.00
2019-01-05T02:35:26.730Z,7.60
2019-01-05T02:38:56.700Z,7.40
2019-01-05T02:42:08.125Z,8.07
2019-01-05T02:45:59.247Z,7.60
2019-01-05T02:49:17.520Z,8.17
2019-01-05T02:52:54.142Z,7.83
2019-01-05T02:56:29.319Z,7.17
2019-01-05T02:59:58.520Z,7.27
2019-01-05T03:03:12.670Z,7.60
2019-01-05T03:07:02.010Z,7.27
2019-01-05T03:10:58.370Z,8.17
2019-01-05T03:14:41.033Z,7.57
2019-01-05T03:18:05.103Z,7.47
2019-01-05T03:21:44.813Z,7.57
2019-01-05T03:25:41.222Z,7.27
2019-01-05T03:29:00.423Z,7.57
2019-01-05T03:32:50.188Z,8.13
2019-01-05T03:36:04.130Z,8.23
2019-01-05T03:39:38.337Z,8.50
2019-01-05T03:42:50.166Z,9.07
2019-01-05T03:46:06.383Z,8.83
2019-01-05T03:49:30.516Z,8.90
2019-01-05T03:53:04.921Z,9.10
2019-01-05T03:56:37.770Z,9.43
2019-01-05T04:00:21.255Z,8.97
2019-01-05T04:04:29.962Z,8.97
2019-01-05T04:07:58.195Z,8.53
2019-01-05T04:11:25.054Z,9.40
2019-01-05T04:14:54.535Z,9.10
2019-01-05T04:18:24.378Z,9.73
2019-01-05T04:22:14.805Z,9.70
2019-01-05T04:25:31.427Z,9.60
2019-01-05T04:29:28.458Z,8.93
2019-01-05T04:33:15.600Z,9.60
2019-01-05T04:36:52.090Z,9.77
2019-01-05T04:40:24.522Z,9.40
2019-01-05T04:44:15.469Z,10.37
2019-01-05T04:47:32.900Z,10.13
2019-01-05T04:51:11.817Z,10.67
2019-01-05T04:55:08.719Z,9.87
2019-01-05T04:58:37.671Z,10.00
2019-01-05T05:02:27.161Z,10.07
2019-01-05T05:05:49.535Z,9.60
2019-01-05T05:09:25.800Z,10.43
2019-01-05T05:12:52.409Z,9.50
2019-01-05T05:16:25.634Z,10.00
2019-01-05T05:19:50.896Z,10.50
2019-01-05T05:23:13.729Z,9.70
2019-01-05T05:26:57.350Z,9.73
2019-01-05T05:30:32.240Z,10.63
2019-01-05T05:33:56.350Z,10.43
2019-01-05T05:37:17.783Z,11.00
2019-01-05T05:41:01.340Z,10.53
2019-01-05T05:44:41.051Z,10.07
2019-01-05T05:48:47.088Z,10.37
2019-01-05T05:52:13.886Z,10.73
2019-01-05T05:55:37.751Z,10.33
2019-01-05T05:59:05.363Z,10.30
2019-01-05T06:02:41.959Z,11.87
2019-01-05T06:06:16.130Z,11.03
2019-01-05T06:09:40.999Z,9.83
2019-01-05T06:12:52.856Z,10.60
2019-01-05T06:16:21.715Z,11.77
2019-01-05T06:19:56.038Z,11.73
2019-01-05T06:23:43.497Z,11.23
2019-01-05T06:27:21.256Z,11.83
2019-01-05T06:30:49.864Z,13.97
2019-01-05T06:34:14.936Z,12.17
2019-01-05T06:37:55.640Z,13.20
2019-01-05T06:41:42.911Z,12.77
2019-01-05T06:45:36.472Z,14.27
2019-01-05T06:49:03.474Z,15.93
2019-01-05T06:52:42.483Z,16.83
2019-01-05T06:56:06.078Z,13.70
2019-01-05T06:59:48.775Z,13.07
2019-01-05T07:03:21.466Z,13.33
2019-01-05T07:07:00.517Z,12.83
2019-01-05T07:10:44.981Z,13.40
2019-01-05T07:14:23.331Z,14.10
2019-01-05T07:18:13.903Z,14.57
2019-01-05T07:21:42.208Z,12.80
2019-01-05T07:25:15.295Z,13.20
2019-01-05T07:28:34.386Z,13.40
2019-01-05T07:32:22.493Z,13.80
2019-01-05T07:36:11.529Z,14.03
2019-01-05T07:39:54.711Z,15.27
2019-01-05T07:43:26.321Z,12.13
2019-01-05T07:47:01.726Z,13.23
2019-01-05T07:50:24.570Z,13.67
2019-01-05T07:53:42.627Z,13.97
2019-01-05T07:57:14.627Z,14.43
2019-01-05T08:00:41.987Z,13.60
2019-01-05T08:04:13.131Z,14.90
2019-01-05T08:07:45.677Z,14.97
2019-01-05T08:11:26.315Z,14.23
2019-01-05T08:15:19.943Z,13.17
2019-01-05T08:18:52.164Z,13.90
2019-01-05T08:22:33.503Z,14.13
2019-01-05T08:26:15.180Z,13.60
2019-01-05T08:29:43.479Z,14.50
2019-01-05T08:33:26.298Z,14.00
2019-01-05T08:37:08.797Z,12.90
2019-01-05T08:40:51.140Z,15.13
2019-01-05T08:44:37.612Z,12.47
2019-01-05T08:48:01.525Z,13.70
2019-01-05T08:51:37.466Z,13.03
2019-01-05T08:55:04.448Z,13.03
2019-01-05T08:58:53.717Z,13.27
2019-01-05T09:02:23.187Z,12.90
2019-01-05T09:05:59.901Z,13.97
2019-01-05T09:09:20.364Z,13.03
2019-01-05T09:12:48.759Z,10.80
2019-01-05T09:16:47.375Z,12.93
2019-01-05T09:20:17.336Z,10.97
2019-01-05T09:24:03.794Z,11.43
2019-01-05T09:27:41.864Z,12.87
2019-01-05T09:31:19.636Z,11.57
2019-01-05T09:34:51.040Z,12.43
2019-01-05T09:38:16.309Z,13.03
2019-01-05T09:41:43.333Z,14.27
2019-01-05T09:45:21.099Z,13.03
2019-01-05T09:49:02.466Z,14.13
2019-01-05T09:52:34.535Z,12.77
2019-01-05T09:56:20.605Z,13.17
2019-01-05T09:59:47.317Z,12.17
2019-01-05T10:03:17.314Z,11.80
2019-01-05T10:06:50.219Z,11.63
2019-01-05T10:10:27.225Z,11.87
2019-01-05T10:14:06.576Z,11.67
2019-01-05T10:17:47.185Z,12.13
2019-01-05T10:21:19.109Z,11.07
2019-01-05T10:24:58.517Z,10.63
2019-01-05T10:28:34.416Z,11.83
2019-01-05T10:32:37.500Z,11.07
2019-01-05T10:36:31.733Z,14.80
2019-01-05T10:39:54.902Z,12.10
2019-01-05T10:43:14.514Z,11.67
2019-01-05T10:46:45.392Z,13.13
2019-01-05T10:50:19.611Z,13.20
2019-01-05T10:53:47.420Z,13.80
2019-01-05T10:57:11.584Z,13.87
2019-01-05T11:01:09.284Z,13.43
2019-01-05T11:04:52.251Z,13.33
2019-01-05T11:08:29.582Z,12.80
2019-01-05T11:12:19.363Z,13.37
2019-01-05T11:15:43.647Z,12.77
2019-01-05T11:19:31.410Z,10.57
2019-01-05T11:23:06.681Z,11.23
2019-01-05T11:26:46.742Z,12.50
2019-01-05T11:30:17.040Z,11.10
2019-01-05T11:34:14.175Z,11.00
2019-01-05T11:37:55.294Z,11.63
2019-01-05T11:41:39.795Z,11.97
2019-01-05T11:45:02.801Z,10.80
2019-01-05T11:48:23.589Z,11.90
2019-01-05T11:51:59.622Z,12.87
2019-01-05T11:55:24.149Z,13.20
2019-01-05T11:58:54.120Z,12.03
2019-01-05T12:02:19.731Z,11.77
2019-01-05T12:05:57.266Z,11.37
2019-01-05T12:09:45.186Z,12.10
2019-01-05T12:13:21.375Z,11.43
2019-01-05T12:16:51.778Z,11.20
2019-01-05T12:20:40.111Z,11.93
2019-01-05T12:24:42.939Z,11.67
2019-01-05T12:28:10.337Z,12.77
2019-01-05T12:32:07.959Z,12.93
2019-01-05T12:35:31.816Z,12.43
2019-01-05T12:39:01.719Z,12.97
2019-01-05T12:42:37.221Z,12.67
2019-01-05T12:46:18.818Z,12.43
2019-01-05T12:49:42.928Z,12.13
2019-01-05T12:53:25.508Z,12.30
2019-01-05T12:56:55.420Z,13.30
2019-01-05T13:00:29.023Z,12.13
2019-01-05T13:04:06.290Z,13.27
2019-01-05T13:07:21.191Z,12.27
2019-01-05T13:10:50.163Z,12.90
2019-01-05T13:14:19.951Z,13.50
2019-01-05T13:17:44.738Z,12.90
2019-01-05T13:21:23.312Z,13.23
2019-01-05T13:25:09.063Z,13.83
2019-01-05T13:28:41.311Z,12.20
2019-01-05T13:32:28.870Z,13.80
2019-01-05T13:36:03.213Z,13.90
2019-01-05T13:39:33.206Z,13.87
2019-01-05T13:43:02.719Z,13.37
2019-01-05T13:46:40.303Z,14.37
2019-01-05T13:50:04.833Z,14.77
2019-01-05T13:53:14.606Z,14.37
2019-01-05T13:56:11.336Z,15.43
2019-01-05T13:59:15.506Z,14.50
2019-01-05T14:02:10.637Z,14.77
2019-01-05T14:04:59.837Z,15.60
2019-01-05T14:08:06.791Z,15.63
2019-01-05T14:10:54.666Z,16.27
2019-01-05T14:13:42.352Z,15.57
2019-01-05T14:16:30.251Z,14.40
2019-01-05T14:19:34.676Z,16.00
2019-01-05T14:22:22.479Z,14.17
2019-01-05T14:25:10.209Z,12.60
2019-01-05T14:27:58.124Z,13.47
2019-01-05T14:30:47.382Z,13.60
2019-01-05T14:33:43.733Z,14.43
2019-01-05T14:36:36.076Z,14.40
2019-01-05T14:39:25.496Z,15.80
2019-01-05T14:42:14.742Z,15.37
2019-01-05T14:45:02.407Z,16.33
2019-01-05T14:47:50.299Z,15.63
2019-01-05T14:50:57.433Z,15.27
2019-01-05T14:53:49.430Z,15.43
2019-01-05T14:56:38.598Z,15.63
2019-01-05T14:59:27.834Z,14.70
2019-01-05T15:02:19.935Z,15.37
2019-01-05T15:05:09.418Z,15.43
2019-01-05T15:08:07.687Z,16.07
2019-01-05T15:11:11.823Z,15.60
2019-01-05T15:14:15.977Z,15.63
2019-01-05T15:17:08.143Z,14.27
2019-01-05T15:19:55.861Z,15.63
2019-01-05T15:22:43.747Z,14.70
2019-01-05T15:25:43.602Z,14.63
2019-01-05T15:28:31.359Z,14.87
2019-01-05T15:31:20.149Z,14.60
2019-01-05T15:34:15.404Z,15.17
2019-01-05T15:37:12.014Z,15.13
2019-01-05T15:40:11.129Z,15.10
2019-01-05T15:43:15.589Z,14.50
2019-01-05T15:46:19.525Z,14.80
2019-01-05T15:49:07.104Z,14.70
2019-01-05T15:51:54.816Z,15.27
2019-01-05T15:54:55.879Z,14.67
2019-01-05T15:57:50.974Z,15.13
2019-01-05T16:00:55.116Z,15.10
2019-01-05T16:03:42.854Z,16.80
2019-01-05T16:06:34.976Z,16.23
2019-01-05T16:09:41.196Z,16.83
2019-01-05T16:12:28.846Z,15.80
2019-01-05T16:15:14.190Z,16.47
2019-01-05T16:18:02.160Z,16.03
2019-01-05T16:20:50.010Z,16.10
2019-01-05T16:23:39.327Z,15.77
2019-01-05T16:26:26.997Z,16.33
2019-01-05T16:29:14.667Z,16.53
2019-01-05T16:32:22.365Z,15.73
2019-01-05T16:35:11.721Z,16.53
2019-01-05T16:38:10.567Z,15.20
2019-01-05T16:40:59.759Z,15.17
2019-01-05T16:43:52.048Z,16.37
2019-01-05T16:46:41.248Z,16.50
2019-01-05T16:49:29.082Z,16.60
2019-01-05T16:52:18.297Z,16.70
2019-01-05T16:55:10.608Z,15.77
2019-01-05T16:57:58.467Z,17.07
2019-01-05T17:00:56.118Z,17.17
2019-01-05T17:03:47.436Z,17.27
2019-01-05T17:06:39.440Z,16.47
2019-01-05T17:09:34.886Z,17.40
2019-01-05T17:12:19.295Z,15.60
2019-01-05T17:15:03.634Z,16.50
2019-01-05T17:17:51.606Z,16.80
2019-01-05T17:20:39.498Z,16.93
2019-01-05T17:23:37.579Z,16.77
2019-01-05T17:26:26.806Z,17.47
2019-01-05T17:29:34.155Z,17.33
2019-01-05T17:32:38.543Z,16.30
2019-01-05T17:35:33.721Z,16.37
2019-01-05T17:38:21.613Z,16.00
2019-01-05T17:41:10.809Z,17.23
2019-01-05T17:43:58.689Z,16.20
2019-01-05T17:46:53.842Z,18.73
2019-01-05T17:49:41.554Z,19.23
2019-01-05T17:52:27.307Z,19.47
2019-01-05T17:55:14.871Z,21.30
2019-01-05T17:58:16.318Z,22.63
2019-01-05T18:01:03.981Z,23.93
2019-01-05T18:03:58.738Z,24.37
2019-01-05T18:06:48.035Z,26.13
2019-01-05T18:09:35.622Z,25.10
2019-01-05T18:12:24.901Z,25.43
2019-01-05T18:15:14.122Z,26.70
2019-01-05T18:18:06.267Z,25.63
2019-01-05T18:21:04.534Z,26.87
2019-01-05T18:23:47.121Z,26.00
2019-01-05T18:26:34.910Z,24.87
2019-01-05T18:29:22.834Z,26.20
2019-01-05T18:32:20.887Z,25.90
2019-01-05T18:35:08.112Z,26.67
2019-01-05T18:37:57.364Z,25.93
2019-01-05T18:40:44.987Z,26.33
2019-01-05T18:43:37.337Z,26.80
2019-01-05T18:46:41.803Z,29.47
2019-01-05T18:49:29.453Z,34.47
2019-01-05T18:52:25.183Z,32.77
2019-01-05T18:55:13.515Z,34.43
2019-01-05T18:58:05.800Z,33.23
2019-01-05T19:00:53.735Z,30.53
2019-01-05T19:03:41.424Z,27.77
2019-01-05T19:06:39.823Z,26.23
2019-01-05T19:09:29.123Z,28.23
2019-01-05T19:12:27.093Z,27.83
2019-01-05T19:15:14.788Z,27.10
2019-01-05T19:18:09.976Z,29.73
2019-01-05T19:21:04.970Z,26.93
2019-01-05T19:24:03.412Z,26.03
2019-01-05T19:26:47.516Z,26.23
2019-01-05T19:29:35.180Z,25.90
2019-01-05T19:32:24.937Z,24.77
2019-01-05T19:35:12.544Z,24.50
2019-01-05T19:38:04.801Z,23.80
2019-01-05T19:40:52.762Z,24.33
2019-01-05T19:43:50.955Z,24.23
2019-01-05T19:46:55.110Z,22.50
2019-01-05T19:49:42.896Z,24.30
2019-01-05T19:52:30.423Z,23.77
2019-01-05T19:55:17.990Z,24.00
2019-01-05T19:58:05.643Z,24.50
2019-01-05T20:00:46.347Z,23.53
2019-01-05T20:03:34.224Z,21.33
2019-01-05T20:06:28.752Z,20.40
2019-01-05T20:09:20.704Z,19.03
2019-01-05T20:12:08.419Z,18.57
2019-01-05T20:15:03.607Z,17.50
2019-01-05T20:18:05.656Z,17.53
2019-01-05T20:20:54.864Z,17.37
2019-01-05T20:23:47.148Z,17.07
2019-01-05T20:26:28.488Z,16.83
2019-01-05T20:29:16.505Z,17.73
2019-01-05T20:32:04.420Z,17.03
2019-01-05T20:34:59.513Z,18.33
2019-01-05T20:37:47.104Z,17.00
2019-01-05T20:40:48.520Z,16.60
2019-01-05T20:43:37.727Z,15.30
2019-01-05T20:46:32.976Z,16.80
2019-01-05T20:49:20.955Z,17.00
2019-01-05T20:52:19.207Z,16.13
2019-01-05T20:55:06.857Z,15.60
2019-01-05T20:57:53.830Z,16.43
2019-01-05T21:00:46.071Z,16.47
2019-01-05T21:03:44.207Z,15.97
2019-01-05T21:06:39.583Z,15.60
2019-01-05T21:09:29.184Z,16.73
2019-01-05T21:12:31.899Z,14.70
2019-01-05T21:15:27.100Z,15.50
2019-01-05T21:18:17.031Z,15.53
2019-01-05T21:21:04.750Z,14.60
2019-01-05T21:24:16.096Z,15.87
2019-01-05T21:27:03.936Z,14.53
2019-01-05T21:30:28.939Z,14.87
2019-01-05T21:33:27.521Z,16.03
2019-01-05T21:36:46.970Z,15.20
2019-01-05T21:39:38.278Z,15.13
2019-01-05T21:42:26.143Z,14.80
2019-01-05T21:45:29.026Z,14.30
2019-01-05T21:48:24.026Z,14.67
2019-01-05T21:51:16.085Z,13.33
2019-01-05T21:54:05.355Z,14.30
2019-01-05T21:56:54.593Z,14.03
2019-01-05T21:59:42.269Z,16.70
2019-01-05T22:02:29.916Z,13.93
2019-01-05T22:05:16.030Z,16.73
2019-01-05T22:08:05.200Z,15.40
2019-01-05T22:10:52.804Z,16.27
2019-01-05T22:13:45.432Z,16.73
2019-01-05T22:16:52.648Z,15.50
2019-01-05T22:19:50.820Z,15.93
2019-01-05T22:22:38.231Z,16.03
2019-01-05T22:25:39.338Z,15.57
2019-01-05T22:28:27.774Z,16.00
2019-01-05T22:31:15.753Z,15.03
2019-01-05T22:34:03.442Z,16.43
2019-01-05T22:37:11.011Z,15.73
2019-01-05T22:39:58.957Z,15.47
2019-01-05T22:42:48.135Z,16.37
2019-01-05T22:45:40.461Z,14.87
2019-01-05T22:48:29.676Z,14.67
2019-01-05T22:51:17.547Z,15.23
2019-01-05T22:54:15.926Z,14.50
2019-01-05T22:57:07.969Z,13.77
2019-01-05T22:59:55.820Z,14.20
2019-01-05T23:02:43.784Z,15.30
2019-01-05T23:05:32.996Z,14.53
2019-01-05T23:08:28.088Z,15.03
2019-01-05T23:11:17.292Z,14.30
2019-01-05T23:14:05.223Z,13.57
2019-01-05T23:16:53.124Z,13.20
2019-01-05T23:19:45.336Z,12.77
2019-01-05T23:22:44.841Z,15.30
2019-01-05T23:25:34.045Z,14.37
2019-01-05T23:28:23.255Z,13.37
2019-01-05T23:31:27.429Z,13.83
2019-01-05T23:34:09.159Z,13.60
2019-01-05T23:37:16.630Z,15.17
2019-01-05T23:40:10.454Z,14.20
2019-01-05T23:42:58.305Z,15.10
2019-01-05T23:45:51.432Z,13.97
2019-01-05T23:48:49.594Z,13.57
2019-01-05T23:51:38.828Z,13.53
2019-01-05T23:54:26.898Z,13.50
2019-01-05T23:57:30.499Z,13.93
